sensor_id;sensor_type;location;lat;lon;timestamp;P1;durP1;ratioP1;P2;durP2;ratioP2
39956;SDS011;48483;44.640;7.494;2023-03-18T00:02:00;22.75;;;16.30;;
39956;SDS011;48483;44.640;7.494;2023-03-18T00:04:29;24.08;;;17.25;;
39956;SDS011;48483;44.640;7.494;2023-03-18T00:06:56;22.00;;;16.77;;
39956;SDS011;48483;44.640;7.494;2023-03-18T00:09:23;23.13;;;16.95;;
39956;SDS011;48483;44.640;7.494;2023-03-18T00:11:50;21.90;;;16.88;;
39956;SDS011;48483;44.640;7.494;2023-03-18T00:14:17;23.38;;;16.75;;
39956;SDS011;48483;44.640;7.494;2023-03-18T00:16:44;23.08;;;17.15;;
39956;SDS011;48483;44.640;7.494;2023-03-18T00:19:10;21.08;;;16.02;;
39956;SDS011;48483;44.640;7.494;2023-03-18T00:21:39;23.25;;;17.70;;
39956;SDS011;48483;44.640;7.494;2023-03-18T00:24:06;23.13;;;16.42;;
39956;SDS011;48483;44.640;7.494;2023-03-18T00:26:33;20.67;;;16.35;;
39956;SDS011;48483;44.640;7.494;2023-03-18T00:29:00;24.45;;;17.48;;
39956;SDS011;48483;44.640;7.494;2023-03-18T00:31:27;21.92;;;16.70;;
39956;SDS011;48483;44.640;7.494;2023-03-18T00:33:56;21.27;;;16.38;;
39956;SDS011;48483;44.640;7.494;2023-03-18T00:36:23;23.10;;;16.77;;
39956;SDS011;48483;44.640;7.494;2023-03-18T00:38:52;22.48;;;17.67;;
39956;SDS011;48483;44.640;7.494;2023-03-18T00:41:28;24.67;;;18.38;;
39956;SDS011;48483;44.640;7.494;2023-03-18T00:43:57;22.43;;;17.77;;
39956;SDS011;48483;44.640;7.494;2023-03-18T00:46:25;24.23;;;18.15;;
39956;SDS011;48483;44.640;7.494;2023-03-18T00:48:54;22.17;;;16.95;;
39956;SDS011;48483;44.640;7.494;2023-03-18T00:51:22;24.73;;;18.05;;
39956;SDS011;48483;44.640;7.494;2023-03-18T00:53:51;21.63;;;17.70;;
39956;SDS011;48483;44.640;7.494;2023-03-18T00:56:21;25.55;;;18.20;;
39956;SDS011;48483;44.640;7.494;2023-03-18T00:58:50;23.00;;;17.58;;
39956;SDS011;48483;44.640;7.494;2023-03-18T01:01:19;24.10;;;17.30;;
39956;SDS011;48483;44.640;7.494;2023-03-18T01:03:46;21.77;;;16.02;;
39956;SDS011;48483;44.640;7.494;2023-03-18T01:06:17;23.67;;;17.50;;
39956;SDS011;48483;44.640;7.494;2023-03-18T01:08:47;22.02;;;16.85;;
39956;SDS011;48483;44.640;7.494;2023-03-18T01:11:16;21.27;;;16.95;;
39956;SDS011;48483;44.640;7.494;2023-03-18T01:13:43;22.33;;;17.58;;
39956;SDS011;48483;44.640;7.494;2023-03-18T01:16:10;23.48;;;18.23;;
39956;SDS011;48483;44.640;7.494;2023-03-18T01:18:38;23.65;;;18.65;;
39956;SDS011;48483;44.640;7.494;2023-03-18T01:21:06;26.80;;;17.15;;
39956;SDS011;48483;44.640;7.494;2023-03-18T01:23:37;21.70;;;17.17;;
39956;SDS011;48483;44.640;7.494;2023-03-18T01:26:05;21.63;;;17.65;;
39956;SDS011;48483;44.640;7.494;2023-03-18T01:28:34;21.55;;;17.85;;
39956;SDS011;48483;44.640;7.494;2023-03-18T01:31:02;24.13;;;17.98;;
39956;SDS011;48483;44.640;7.494;2023-03-18T01:33:29;25.17;;;17.70;;
39956;SDS011;48483;44.640;7.494;2023-03-18T01:35:57;23.63;;;17.45;;
39956;SDS011;48483;44.640;7.494;2023-03-18T01:38:28;23.67;;;18.92;;
39956;SDS011;48483;44.640;7.494;2023-03-18T01:40:57;22.95;;;16.98;;
39956;SDS011;48483;44.640;7.494;2023-03-18T01:43:27;22.35;;;17.42;;
39956;SDS011;48483;44.640;7.494;2023-03-18T01:45:57;24.98;;;17.63;;
39956;SDS011;48483;44.640;7.494;2023-03-18T01:51:00;21.50;;;16.30;;
39956;SDS011;48483;44.640;7.494;2023-03-18T01:53:31;24.23;;;18.27;;
39956;SDS011;48483;44.640;7.494;2023-03-18T01:56:04;22.90;;;17.30;;
39956;SDS011;48483;44.640;7.494;2023-03-18T01:58:33;21.67;;;16.70;;
39956;SDS011;48483;44.640;7.494;2023-03-18T02:01:05;25.20;;;18.60;;
39956;SDS011;48483;44.640;7.494;2023-03-18T02:03:37;25.65;;;18.55;;
39956;SDS011;48483;44.640;7.494;2023-03-18T02:06:06;22.48;;;17.77;;
39956;SDS011;48483;44.640;7.494;2023-03-18T02:08:33;24.20;;;17.55;;
39956;SDS011;48483;44.640;7.494;2023-03-18T02:11:01;25.42;;;17.63;;
39956;SDS011;48483;44.640;7.494;2023-03-18T02:13:28;25.17;;;18.70;;
39956;SDS011;48483;44.640;7.494;2023-03-18T02:15:57;22.30;;;15.52;;
39956;SDS011;48483;44.640;7.494;2023-03-18T02:18:33;23.33;;;17.70;;
39956;SDS011;48483;44.640;7.494;2023-03-18T02:21:11;22.50;;;17.08;;
39956;SDS011;48483;44.640;7.494;2023-03-18T02:23:51;21.70;;;17.33;;
39956;SDS011;48483;44.640;7.494;2023-03-18T02:26:28;23.80;;;18.30;;
39956;SDS011;48483;44.640;7.494;2023-03-18T02:29:05;24.33;;;18.60;;
39956;SDS011;48483;44.640;7.494;2023-03-18T02:31:43;24.25;;;18.38;;
39956;SDS011;48483;44.640;7.494;2023-03-18T02:34:10;24.38;;;18.15;;
39956;SDS011;48483;44.640;7.494;2023-03-18T02:36:39;23.83;;;19.10;;
39956;SDS011;48483;44.640;7.494;2023-03-18T02:39:10;23.98;;;18.00;;
39956;SDS011;48483;44.640;7.494;2023-03-18T02:41:38;23.73;;;17.98;;
39956;SDS011;48483;44.640;7.494;2023-03-18T02:44:06;24.38;;;17.92;;
39956;SDS011;48483;44.640;7.494;2023-03-18T02:46:46;24.10;;;17.88;;
39956;SDS011;48483;44.640;7.494;2023-03-18T02:49:18;22.30;;;16.67;;
39956;SDS011;48483;44.640;7.494;2023-03-18T02:51:46;23.80;;;18.02;;
39956;SDS011;48483;44.640;7.494;2023-03-18T02:54:16;22.95;;;18.80;;
39956;SDS011;48483;44.640;7.494;2023-03-18T02:56:45;23.73;;;17.20;;
39956;SDS011;48483;44.640;7.494;2023-03-18T02:59:14;23.95;;;17.95;;
39956;SDS011;48483;44.640;7.494;2023-03-18T03:01:41;23.98;;;18.77;;
39956;SDS011;48483;44.640;7.494;2023-03-18T03:04:09;24.13;;;17.85;;
39956;SDS011;48483;44.640;7.494;2023-03-18T03:06:37;22.35;;;16.02;;
39956;SDS011;48483;44.640;7.494;2023-03-18T03:09:06;26.00;;;18.17;;
39956;SDS011;48483;44.640;7.494;2023-03-18T03:11:34;24.35;;;18.30;;
39956;SDS011;48483;44.640;7.494;2023-03-18T03:14:09;22.88;;;17.75;;
39956;SDS011;48483;44.640;7.494;2023-03-18T03:16:39;23.40;;;17.58;;
39956;SDS011;48483;44.640;7.494;2023-03-18T03:19:06;23.85;;;17.67;;
39956;SDS011;48483;44.640;7.494;2023-03-18T03:21:35;26.00;;;18.17;;
39956;SDS011;48483;44.640;7.494;2023-03-18T03:24:02;25.58;;;19.08;;
39956;SDS011;48483;44.640;7.494;2023-03-18T03:26:30;28.45;;;19.60;;
39956;SDS011;48483;44.640;7.494;2023-03-18T03:28:57;25.13;;;18.55;;
39956;SDS011;48483;44.640;7.494;2023-03-18T03:31:23;26.88;;;18.70;;
39956;SDS011;48483;44.640;7.494;2023-03-18T03:33:52;26.80;;;18.55;;
39956;SDS011;48483;44.640;7.494;2023-03-18T03:36:19;24.95;;;18.55;;
39956;SDS011;48483;44.640;7.494;2023-03-18T03:38:47;29.58;;;19.13;;
39956;SDS011;48483;44.640;7.494;2023-03-18T03:41:15;27.92;;;18.73;;
39956;SDS011;48483;44.640;7.494;2023-03-18T03:43:42;28.85;;;19.75;;
39956;SDS011;48483;44.640;7.494;2023-03-18T03:46:09;27.27;;;19.00;;
39956;SDS011;48483;44.640;7.494;2023-03-18T03:48:37;26.35;;;18.52;;
39956;SDS011;48483;44.640;7.494;2023-03-18T03:51:11;25.20;;;18.73;;
39956;SDS011;48483;44.640;7.494;2023-03-18T03:53:37;29.83;;;19.65;;
39956;SDS011;48483;44.640;7.494;2023-03-18T03:56:04;28.50;;;18.40;;
39956;SDS011;48483;44.640;7.494;2023-03-18T03:58:32;27.63;;;18.90;;
39956;SDS011;48483;44.640;7.494;2023-03-18T04:00:59;27.35;;;18.02;;
39956;SDS011;48483;44.640;7.494;2023-03-18T04:03:26;23.48;;;17.08;;
39956;SDS011;48483;44.640;7.494;2023-03-18T04:05:53;24.42;;;18.88;;
39956;SDS011;48483;44.640;7.494;2023-03-18T04:08:25;30.08;;;18.40;;
39956;SDS011;48483;44.640;7.494;2023-03-18T04:10:52;31.20;;;19.95;;
39956;SDS011;48483;44.640;7.494;2023-03-18T04:13:19;28.70;;;18.70;;
39956;SDS011;48483;44.640;7.494;2023-03-18T04:15:46;27.40;;;19.15;;
39956;SDS011;48483;44.640;7.494;2023-03-18T04:18:17;28.17;;;18.77;;
39956;SDS011;48483;44.640;7.494;2023-03-18T04:20:44;27.65;;;18.52;;
39956;SDS011;48483;44.640;7.494;2023-03-18T04:23:19;27.10;;;17.73;;
39956;SDS011;48483;44.640;7.494;2023-03-18T04:25:47;29.88;;;19.17;;
39956;SDS011;48483;44.640;7.494;2023-03-18T04:28:15;27.55;;;19.92;;
39956;SDS011;48483;44.640;7.494;2023-03-18T04:30:41;28.10;;;19.42;;
39956;SDS011;48483;44.640;7.494;2023-03-18T04:33:13;25.70;;;17.98;;
39956;SDS011;48483;44.640;7.494;2023-03-18T04:35:40;25.58;;;18.92;;
39956;SDS011;48483;44.640;7.494;2023-03-18T04:38:09;27.48;;;19.25;;
39956;SDS011;48483;44.640;7.494;2023-03-18T04:40:37;25.17;;;18.75;;
39956;SDS011;48483;44.640;7.494;2023-03-18T04:43:05;26.23;;;18.98;;
39956;SDS011;48483;44.640;7.494;2023-03-18T04:45:33;25.48;;;18.65;;
39956;SDS011;48483;44.640;7.494;2023-03-18T04:48:01;25.85;;;18.20;;
39956;SDS011;48483;44.640;7.494;2023-03-18T04:50:32;27.20;;;19.52;;
39956;SDS011;48483;44.640;7.494;2023-03-18T04:52:59;28.35;;;19.42;;
39956;SDS011;48483;44.640;7.494;2023-03-18T04:55:28;28.25;;;18.88;;
39956;SDS011;48483;44.640;7.494;2023-03-18T04:57:56;25.92;;;18.85;;
39956;SDS011;48483;44.640;7.494;2023-03-18T05:00:26;26.63;;;19.30;;
39956;SDS011;48483;44.640;7.494;2023-03-18T05:03:03;32.75;;;20.48;;
39956;SDS011;48483;44.640;7.494;2023-03-18T05:05:30;28.33;;;19.88;;
39956;SDS011;48483;44.640;7.494;2023-03-18T05:07:58;31.38;;;20.52;;
39956;SDS011;48483;44.640;7.494;2023-03-18T05:10:26;26.20;;;17.67;;
39956;SDS011;48483;44.640;7.494;2023-03-18T05:12:53;28.88;;;18.60;;
39956;SDS011;48483;44.640;7.494;2023-03-18T05:15:28;26.02;;;19.20;;
39956;SDS011;48483;44.640;7.494;2023-03-18T05:17:57;27.23;;;19.20;;
39956;SDS011;48483;44.640;7.494;2023-03-18T05:20:25;25.45;;;18.92;;
39956;SDS011;48483;44.640;7.494;2023-03-18T05:22:53;29.17;;;19.83;;
39956;SDS011;48483;44.640;7.494;2023-03-18T05:25:36;26.60;;;19.58;;
39956;SDS011;48483;44.640;7.494;2023-03-18T05:28:03;27.52;;;20.02;;
39956;SDS011;48483;44.640;7.494;2023-03-18T05:30:43;24.58;;;18.55;;
39956;SDS011;48483;44.640;7.494;2023-03-18T05:33:13;24.80;;;18.33;;
39956;SDS011;48483;44.640;7.494;2023-03-18T05:36:01;26.00;;;18.92;;
39956;SDS011;48483;44.640;7.494;2023-03-18T05:38:34;29.70;;;19.35;;
39956;SDS011;48483;44.640;7.494;2023-03-18T05:41:02;29.42;;;19.08;;
39956;SDS011;48483;44.640;7.494;2023-03-18T05:43:35;28.58;;;18.38;;
39956;SDS011;48483;44.640;7.494;2023-03-18T05:46:04;29.92;;;21.08;;
39956;SDS011;48483;44.640;7.494;2023-03-18T05:48:50;26.52;;;19.08;;
39956;SDS011;48483;44.640;7.494;2023-03-18T05:51:17;28.25;;;19.88;;
39956;SDS011;48483;44.640;7.494;2023-03-18T05:53:45;31.88;;;21.10;;
39956;SDS011;48483;44.640;7.494;2023-03-18T05:56:21;30.55;;;21.58;;
39956;SDS011;48483;44.640;7.494;2023-03-18T05:58:52;33.60;;;20.05;;
39956;SDS011;48483;44.640;7.494;2023-03-18T06:01:33;28.65;;;20.25;;
39956;SDS011;48483;44.640;7.494;2023-03-18T06:04:00;24.10;;;18.67;;
39956;SDS011;48483;44.640;7.494;2023-03-18T06:06:27;30.60;;;20.25;;
39956;SDS011;48483;44.640;7.494;2023-03-18T06:08:54;27.67;;;20.52;;
39956;SDS011;48483;44.640;7.494;2023-03-18T06:11:22;30.83;;;21.05;;
39956;SDS011;48483;44.640;7.494;2023-03-18T06:13:50;26.10;;;18.80;;
39956;SDS011;48483;44.640;7.494;2023-03-18T06:16:17;28.30;;;19.50;;
39956;SDS011;48483;44.640;7.494;2023-03-18T06:18:45;29.20;;;20.48;;
39956;SDS011;48483;44.640;7.494;2023-03-18T06:21:14;33.13;;;21.48;;
39956;SDS011;48483;44.640;7.494;2023-03-18T06:23:40;26.13;;;18.73;;
39956;SDS011;48483;44.640;7.494;2023-03-18T06:26:07;32.45;;;20.13;;
39956;SDS011;48483;44.640;7.494;2023-03-18T06:28:42;30.42;;;20.00;;
39956;SDS011;48483;44.640;7.494;2023-03-18T06:31:10;27.17;;;20.05;;
39956;SDS011;48483;44.640;7.494;2023-03-18T06:33:38;28.55;;;19.58;;
39956;SDS011;48483;44.640;7.494;2023-03-18T06:36:09;30.38;;;19.65;;
39956;SDS011;48483;44.640;7.494;2023-03-18T06:38:39;29.25;;;20.65;;
39956;SDS011;48483;44.640;7.494;2023-03-18T06:41:06;28.98;;;19.67;;
39956;SDS011;48483;44.640;7.494;2023-03-18T06:43:37;28.08;;;18.65;;
39956;SDS011;48483;44.640;7.494;2023-03-18T06:46:04;29.63;;;19.55;;
39956;SDS011;48483;44.640;7.494;2023-03-18T06:48:31;29.20;;;19.58;;
39956;SDS011;48483;44.640;7.494;2023-03-18T06:50:59;29.20;;;21.48;;
39956;SDS011;48483;44.640;7.494;2023-03-18T06:53:34;29.60;;;19.60;;
39956;SDS011;48483;44.640;7.494;2023-03-18T06:56:02;32.97;;;19.00;;
39956;SDS011;48483;44.640;7.494;2023-03-18T06:58:38;26.17;;;18.52;;
39956;SDS011;48483;44.640;7.494;2023-03-18T07:01:08;32.10;;;20.77;;
39956;SDS011;48483;44.640;7.494;2023-03-18T07:03:40;27.85;;;19.30;;
39956;SDS011;48483;44.640;7.494;2023-03-18T07:06:08;29.98;;;19.23;;
39956;SDS011;48483;44.640;7.494;2023-03-18T07:08:38;25.08;;;18.95;;
39956;SDS011;48483;44.640;7.494;2023-03-18T07:11:05;27.65;;;18.55;;
39956;SDS011;48483;44.640;7.494;2023-03-18T07:13:33;31.85;;;19.67;;
39956;SDS011;48483;44.640;7.494;2023-03-18T07:16:02;34.22;;;19.85;;
39956;SDS011;48483;44.640;7.494;2023-03-18T07:18:29;25.02;;;18.70;;
39956;SDS011;48483;44.640;7.494;2023-03-18T07:20:56;28.83;;;19.70;;
39956;SDS011;48483;44.640;7.494;2023-03-18T07:23:23;31.08;;;20.13;;
39956;SDS011;48483;44.640;7.494;2023-03-18T07:25:51;26.75;;;18.25;;
39956;SDS011;48483;44.640;7.494;2023-03-18T07:28:18;27.08;;;19.60;;
39956;SDS011;48483;44.640;7.494;2023-03-18T07:30:46;28.35;;;20.50;;
39956;SDS011;48483;44.640;7.494;2023-03-18T07:33:12;26.60;;;19.10;;
39956;SDS011;48483;44.640;7.494;2023-03-18T07:35:40;28.75;;;19.17;;
39956;SDS011;48483;44.640;7.494;2023-03-18T07:38:08;30.30;;;20.65;;
39956;SDS011;48483;44.640;7.494;2023-03-18T07:40:36;26.98;;;18.50;;
39956;SDS011;48483;44.640;7.494;2023-03-18T07:43:05;27.05;;;19.00;;
39956;SDS011;48483;44.640;7.494;2023-03-18T07:45:33;30.88;;;19.60;;
39956;SDS011;48483;44.640;7.494;2023-03-18T07:47:59;29.00;;;20.75;;
39956;SDS011;48483;44.640;7.494;2023-03-18T07:50:26;27.50;;;19.17;;
39956;SDS011;48483;44.640;7.494;2023-03-18T07:52:53;28.77;;;19.52;;
39956;SDS011;48483;44.640;7.494;2023-03-18T07:55:20;27.98;;;19.55;;
39956;SDS011;48483;44.640;7.494;2023-03-18T07:57:46;28.77;;;20.27;;
39956;SDS011;48483;44.640;7.494;2023-03-18T08:00:16;31.40;;;20.67;;
39956;SDS011;48483;44.640;7.494;2023-03-18T08:02:43;27.80;;;20.55;;
39956;SDS011;48483;44.640;7.494;2023-03-18T08:05:10;29.25;;;18.55;;
39956;SDS011;48483;44.640;7.494;2023-03-18T08:07:38;31.48;;;19.50;;
39956;SDS011;48483;44.640;7.494;2023-03-18T08:10:05;31.67;;;18.98;;
39956;SDS011;48483;44.640;7.494;2023-03-18T08:12:34;27.17;;;19.90;;
39956;SDS011;48483;44.640;7.494;2023-03-18T08:15:01;30.33;;;20.42;;
39956;SDS011;48483;44.640;7.494;2023-03-18T08:17:29;32.50;;;20.13;;
39956;SDS011;48483;44.640;7.494;2023-03-18T08:19:55;28.95;;;19.70;;
39956;SDS011;48483;44.640;7.494;2023-03-18T08:22:23;28.63;;;19.92;;
39956;SDS011;48483;44.640;7.494;2023-03-18T08:24:50;26.27;;;19.33;;
39956;SDS011;48483;44.640;7.494;2023-03-18T08:27:17;28.08;;;20.42;;
39956;SDS011;48483;44.640;7.494;2023-03-18T08:29:44;28.17;;;20.35;;
39956;SDS011;48483;44.640;7.494;2023-03-18T08:32:11;27.98;;;19.92;;
39956;SDS011;48483;44.640;7.494;2023-03-18T08:34:39;29.67;;;19.95;;
39956;SDS011;48483;44.640;7.494;2023-03-18T08:37:06;27.23;;;21.20;;
39956;SDS011;48483;44.640;7.494;2023-03-18T08:39:33;28.92;;;22.25;;
39956;SDS011;48483;44.640;7.494;2023-03-18T08:42:01;29.23;;;20.48;;
39956;SDS011;48483;44.640;7.494;2023-03-18T08:44:29;29.92;;;20.65;;
39956;SDS011;48483;44.640;7.494;2023-03-18T08:46:56;27.98;;;20.27;;
39956;SDS011;48483;44.640;7.494;2023-03-18T08:49:23;25.95;;;20.23;;
39956;SDS011;48483;44.640;7.494;2023-03-18T08:51:51;29.55;;;20.85;;
39956;SDS011;48483;44.640;7.494;2023-03-18T08:54:18;29.05;;;20.15;;
39956;SDS011;48483;44.640;7.494;2023-03-18T08:56:46;28.05;;;19.77;;
39956;SDS011;48483;44.640;7.494;2023-03-18T08:59:12;31.30;;;20.88;;
39956;SDS011;48483;44.640;7.494;2023-03-18T09:01:39;27.10;;;20.58;;
39956;SDS011;48483;44.640;7.494;2023-03-18T09:04:06;28.55;;;20.35;;
39956;SDS011;48483;44.640;7.494;2023-03-18T09:06:33;27.92;;;20.98;;
39956;SDS011;48483;44.640;7.494;2023-03-18T09:09:01;29.30;;;20.70;;
39956;SDS011;48483;44.640;7.494;2023-03-18T09:11:28;30.80;;;20.83;;
39956;SDS011;48483;44.640;7.494;2023-03-18T09:13:55;26.75;;;20.23;;
39956;SDS011;48483;44.640;7.494;2023-03-18T09:16:21;27.27;;;20.73;;
39956;SDS011;48483;44.640;7.494;2023-03-18T09:18:48;30.88;;;20.60;;
39956;SDS011;48483;44.640;7.494;2023-03-18T09:21:15;28.00;;;20.33;;
39956;SDS011;48483;44.640;7.494;2023-03-18T09:23:42;28.48;;;20.55;;
39956;SDS011;48483;44.640;7.494;2023-03-18T09:26:10;27.80;;;20.70;;
39956;SDS011;48483;44.640;7.494;2023-03-18T09:28:37;31.10;;;21.05;;
39956;SDS011;48483;44.640;7.494;2023-03-18T09:31:04;32.08;;;21.23;;
39956;SDS011;48483;44.640;7.494;2023-03-18T09:33:31;30.17;;;21.30;;
39956;SDS011;48483;44.640;7.494;2023-03-18T09:35:58;27.50;;;20.55;;
39956;SDS011;48483;44.640;7.494;2023-03-18T09:38:25;27.73;;;20.20;;
39956;SDS011;48483;44.640;7.494;2023-03-18T09:40:59;28.35;;;21.35;;
39956;SDS011;48483;44.640;7.494;2023-03-18T09:43:35;29.98;;;22.10;;
39956;SDS011;48483;44.640;7.494;2023-03-18T09:46:14;30.40;;;22.33;;
39956;SDS011;48483;44.640;7.494;2023-03-18T09:48:56;30.88;;;22.25;;
39956;SDS011;48483;44.640;7.494;2023-03-18T09:51:43;27.83;;;21.80;;
39956;SDS011;48483;44.640;7.494;2023-03-18T09:54:17;29.48;;;22.05;;
39956;SDS011;48483;44.640;7.494;2023-03-18T09:56:51;30.60;;;23.15;;
39956;SDS011;48483;44.640;7.494;2023-03-18T09:59:20;28.45;;;21.77;;
39956;SDS011;48483;44.640;7.494;2023-03-18T10:01:50;26.95;;;22.27;;
39956;SDS011;48483;44.640;7.494;2023-03-18T10:04:19;30.70;;;23.63;;
39956;SDS011;48483;44.640;7.494;2023-03-18T10:06:49;29.55;;;22.77;;
39956;SDS011;48483;44.640;7.494;2023-03-18T10:09:19;29.65;;;22.98;;
39956;SDS011;48483;44.640;7.494;2023-03-18T10:11:51;31.45;;;23.52;;
39956;SDS011;48483;44.640;7.494;2023-03-18T10:14:31;32.85;;;22.63;;
39956;SDS011;48483;44.640;7.494;2023-03-18T10:17:05;35.22;;;24.55;;
39956;SDS011;48483;44.640;7.494;2023-03-18T10:19:42;29.75;;;23.20;;
39956;SDS011;48483;44.640;7.494;2023-03-18T10:22:19;31.70;;;24.45;;
39956;SDS011;48483;44.640;7.494;2023-03-18T10:25:05;29.35;;;22.55;;
39956;SDS011;48483;44.640;7.494;2023-03-18T10:27:40;29.83;;;24.80;;
39956;SDS011;48483;44.640;7.494;2023-03-18T10:30:33;31.30;;;24.85;;
39956;SDS011;48483;44.640;7.494;2023-03-18T10:33:09;29.02;;;23.73;;
39956;SDS011;48483;44.640;7.494;2023-03-18T10:35:44;34.58;;;24.38;;
39956;SDS011;48483;44.640;7.494;2023-03-18T10:38:17;32.25;;;23.35;;
39956;SDS011;48483;44.640;7.494;2023-03-18T10:40:48;31.88;;;22.90;;
39956;SDS011;48483;44.640;7.494;2023-03-18T10:43:15;28.85;;;22.80;;
39956;SDS011;48483;44.640;7.494;2023-03-18T10:45:46;29.83;;;24.48;;
39956;SDS011;48483;44.640;7.494;2023-03-18T10:48:25;29.48;;;24.08;;
39956;SDS011;48483;44.640;7.494;2023-03-18T10:50:58;30.95;;;24.05;;
39956;SDS011;48483;44.640;7.494;2023-03-18T10:53:33;30.50;;;22.90;;
39956;SDS011;48483;44.640;7.494;2023-03-18T10:56:06;32.47;;;23.60;;
39956;SDS011;48483;44.640;7.494;2023-03-18T10:58:34;28.60;;;23.60;;
39956;SDS011;48483;44.640;7.494;2023-03-18T11:01:04;28.17;;;22.05;;
39956;SDS011;48483;44.640;7.494;2023-03-18T11:03:33;28.73;;;22.88;;
39956;SDS011;48483;44.640;7.494;2023-03-18T11:06:02;31.45;;;23.42;;
39956;SDS011;48483;44.640;7.494;2023-03-18T11:08:33;28.02;;;22.15;;
39956;SDS011;48483;44.640;7.494;2023-03-18T11:11:12;30.02;;;23.13;;
39956;SDS011;48483;44.640;7.494;2023-03-18T11:13:44;32.13;;;22.63;;
39956;SDS011;48483;44.640;7.494;2023-03-18T11:16:13;29.65;;;22.65;;
39956;SDS011;48483;44.640;7.494;2023-03-18T11:18:50;30.75;;;23.25;;
39956;SDS011;48483;44.640;7.494;2023-03-18T11:21:19;28.67;;;22.25;;
39956;SDS011;48483;44.640;7.494;2023-03-18T11:23:51;28.23;;;20.65;;
39956;SDS011;48483;44.640;7.494;2023-03-18T11:26:47;30.02;;;23.00;;
39956;SDS011;48483;44.640;7.494;2023-03-18T11:29:20;27.85;;;22.17;;
39956;SDS011;48483;44.640;7.494;2023-03-18T11:31:54;29.67;;;22.95;;
39956;SDS011;48483;44.640;7.494;2023-03-18T11:34:23;28.08;;;22.60;;
39956;SDS011;48483;44.640;7.494;2023-03-18T11:36:51;30.08;;;22.98;;
39956;SDS011;48483;44.640;7.494;2023-03-18T11:39:21;31.88;;;23.67;;
39956;SDS011;48483;44.640;7.494;2023-03-18T11:41:50;29.40;;;23.08;;
39956;SDS011;48483;44.640;7.494;2023-03-18T11:44:22;28.35;;;22.17;;
39956;SDS011;48483;44.640;7.494;2023-03-18T11:46:54;29.88;;;23.30;;
39956;SDS011;48483;44.640;7.494;2023-03-18T11:49:26;30.73;;;23.55;;
39956;SDS011;48483;44.640;7.494;2023-03-18T11:51:54;28.40;;;22.20;;
39956;SDS011;48483;44.640;7.494;2023-03-18T11:54:36;25.95;;;21.17;;
39956;SDS011;48483;44.640;7.494;2023-03-18T11:57:25;28.08;;;21.08;;
39956;SDS011;48483;44.640;7.494;2023-03-18T11:59:59;27.10;;;21.00;;
39956;SDS011;48483;44.640;7.494;2023-03-18T12:02:49;27.55;;;21.35;;
39956;SDS011;48483;44.640;7.494;2023-03-18T12:05:49;27.65;;;21.30;;
39956;SDS011;48483;44.640;7.494;2023-03-18T12:08:26;26.20;;;20.23;;
39956;SDS011;48483;44.640;7.494;2023-03-18T12:11:01;28.05;;;21.33;;
39956;SDS011;48483;44.640;7.494;2023-03-18T12:13:37;28.83;;;23.17;;
39956;SDS011;48483;44.640;7.494;2023-03-18T12:16:16;26.45;;;22.30;;
39956;SDS011;48483;44.640;7.494;2023-03-18T12:18:55;32.38;;;24.20;;
39956;SDS011;48483;44.640;7.494;2023-03-18T12:21:35;29.65;;;22.08;;
39956;SDS011;48483;44.640;7.494;2023-03-18T12:24:26;29.00;;;22.87;;
39956;SDS011;48483;44.640;7.494;2023-03-18T12:27:11;29.25;;;21.30;;
39956;SDS011;48483;44.640;7.494;2023-03-18T12:32:42;34.63;;;24.10;;
39956;SDS011;48483;44.640;7.494;2023-03-18T12:35:20;33.35;;;22.13;;
39956;SDS011;48483;44.640;7.494;2023-03-18T12:40:53;27.50;;;20.63;;
39956;SDS011;48483;44.640;7.494;2023-03-18T12:43:31;31.67;;;21.98;;
39956;SDS011;48483;44.640;7.494;2023-03-18T12:46:07;27.15;;;21.05;;
39956;SDS011;48483;44.640;7.494;2023-03-18T12:48:45;26.40;;;20.67;;
39956;SDS011;48483;44.640;7.494;2023-03-18T12:51:19;30.48;;;21.45;;
39956;SDS011;48483;44.640;7.494;2023-03-18T12:53:51;26.67;;;19.67;;
39956;SDS011;48483;44.640;7.494;2023-03-18T12:56:21;32.20;;;22.00;;
39956;SDS011;48483;44.640;7.494;2023-03-18T12:58:51;28.52;;;20.58;;
39956;SDS011;48483;44.640;7.494;2023-03-18T13:01:20;28.00;;;19.83;;
39956;SDS011;48483;44.640;7.494;2023-03-18T13:03:53;30.70;;;21.65;;
39956;SDS011;48483;44.640;7.494;2023-03-18T13:06:26;28.10;;;20.10;;
39956;SDS011;48483;44.640;7.494;2023-03-18T13:09:00;27.13;;;20.90;;
39956;SDS011;48483;44.640;7.494;2023-03-18T13:11:42;27.25;;;20.35;;
39956;SDS011;48483;44.640;7.494;2023-03-18T13:14:21;29.20;;;22.08;;
39956;SDS011;48483;44.640;7.494;2023-03-18T13:16:52;32.55;;;21.80;;
39956;SDS011;48483;44.640;7.494;2023-03-18T13:19:20;26.45;;;20.10;;
39956;SDS011;48483;44.640;7.494;2023-03-18T13:21:48;29.48;;;20.70;;
39956;SDS011;48483;44.640;7.494;2023-03-18T13:24:24;26.27;;;20.90;;
39956;SDS011;48483;44.640;7.494;2023-03-18T13:27:25;30.90;;;20.70;;
39956;SDS011;48483;44.640;7.494;2023-03-18T13:30:04;27.75;;;19.58;;
39956;SDS011;48483;44.640;7.494;2023-03-18T13:32:42;28.58;;;19.70;;
39956;SDS011;48483;44.640;7.494;2023-03-18T13:38:37;30.55;;;19.80;;
39956;SDS011;48483;44.640;7.494;2023-03-18T13:41:27;28.98;;;20.60;;
39956;SDS011;48483;44.640;7.494;2023-03-18T13:44:05;29.02;;;20.48;;
39956;SDS011;48483;44.640;7.494;2023-03-18T13:46:39;29.70;;;20.17;;
39956;SDS011;48483;44.640;7.494;2023-03-18T13:49:11;28.60;;;19.30;;
39956;SDS011;48483;44.640;7.494;2023-03-18T13:51:48;28.85;;;20.85;;
39956;SDS011;48483;44.640;7.494;2023-03-18T13:54:18;28.15;;;19.58;;
39956;SDS011;48483;44.640;7.494;2023-03-18T13:56:46;28.95;;;20.23;;
39956;SDS011;48483;44.640;7.494;2023-03-18T14:08:02;27.97;;;18.50;;
39956;SDS011;48483;44.640;7.494;2023-03-18T14:10:32;28.17;;;17.90;;
39956;SDS011;48483;44.640;7.494;2023-03-18T14:13:12;26.98;;;18.83;;
39956;SDS011;48483;44.640;7.494;2023-03-18T14:15:50;28.70;;;19.42;;
39956;SDS011;48483;44.640;7.494;2023-03-18T14:18:18;27.00;;;19.05;;
39956;SDS011;48483;44.640;7.494;2023-03-18T14:21:01;27.75;;;18.23;;
39956;SDS011;48483;44.640;7.494;2023-03-18T14:23:34;27.33;;;18.45;;
39956;SDS011;48483;44.640;7.494;2023-03-18T14:26:06;31.60;;;19.38;;
39956;SDS011;48483;44.640;7.494;2023-03-18T14:28:45;28.13;;;19.45;;
39956;SDS011;48483;44.640;7.494;2023-03-18T14:31:18;25.33;;;17.77;;
39956;SDS011;48483;44.640;7.494;2023-03-18T14:33:56;29.08;;;19.38;;
39956;SDS011;48483;44.640;7.494;2023-03-18T14:36:40;30.63;;;20.02;;
39956;SDS011;48483;44.640;7.494;2023-03-18T14:39:13;27.45;;;18.20;;
39956;SDS011;48483;44.640;7.494;2023-03-18T14:41:44;30.70;;;19.13;;
39956;SDS011;48483;44.640;7.494;2023-03-18T14:44:18;28.17;;;17.67;;
39956;SDS011;48483;44.640;7.494;2023-03-18T14:46:49;27.27;;;19.67;;
39956;SDS011;48483;44.640;7.494;2023-03-18T14:52:05;28.60;;;18.63;;
39956;SDS011;48483;44.640;7.494;2023-03-18T14:54:41;26.95;;;18.35;;
39956;SDS011;48483;44.640;7.494;2023-03-18T14:57:12;27.30;;;18.43;;
39956;SDS011;48483;44.640;7.494;2023-03-18T14:59:39;26.08;;;17.17;;
39956;SDS011;48483;44.640;7.494;2023-03-18T15:02:07;25.95;;;17.83;;
39956;SDS011;48483;44.640;7.494;2023-03-18T15:04:49;28.40;;;18.13;;
39956;SDS011;48483;44.640;7.494;2023-03-18T15:07:17;30.38;;;17.00;;